Strona główna
METAR-TAF:

METAR-TAF

Lotnisko :

Albenga, Włochy

Szerokość geograficzna: 44-03N, Długość geograficzna: 008-07E, wysokość: 45 m

Aktualna obserwacja pogody

Raport powstał 1 godzina i 2 minut temu, godzina 10:50 UTC
Wiatr 6 kt od północ w porywach dochodzący do 21 kt
Temperatura 16°C
Wilgotność 21%
Ciśnienie 1018 hPa
Widzialność 10 km lub więcej
Brak chmur poniżej 1500 m i brak chmur cumulonimbus

METAR: LIMG 101050Z 01006G21KT CAVOK 16/M06 Q1018

czas: 12:52 (11:52 UTC)


TAF: brakujący

Obserwacja i prognoza pogody dla ponad 4000 lotnisk (raport METAR i TAF).

Dostępne stacje oznaczono żółtymi i czerwonymi punktami na mapie.

Najedź kursorem aby zobaczyć nazwę stacji.

Kliknij aby zobaczyć obserwacje i prognozy pogody.

Aby zmienić mapę: kliknij na zielony przycisk z czarnym krzyżykiem, aby powiększyć; na zielony przycisk z myślnikiem, aby pomniejszyć; na zielone strzałki, aby przejść do map sąsiednich.


METAR-TAF: